»·PEaware :: DCM205 KSFO-KSAN

DCM205 :: KSFO-KSAN

FLIGHT INFORMATION

Flight Status: Arrived
Operator:
DotCom
More flights by this operator :: More flights under this callsign
Pilot: Chris S. (2433)
Aircraft: AIRBUS A320
(A320)
More flights by this aircraft type
Origin: KSFO San Francisco Intl
United States
Destination: KSAN San Diego Intl-Lindbergh
United States
More flights between these airports :: More routes between these airports
Route: OFFSH2 MCKEY LAX COMIX2
File this flight plan on PilotEdge
Remarks:
Altitude:
(Current/Filed)
37,000ft
Speed:
(Current/Filed)
450kts
Departed: 01-Apr-20 07:51 AM
Arrived: 01-Apr-20 09:03 AM
Distance/Time
Traveled:
387nm/1:12
Distance/Time
To Go:
Arrived

Flight Plot

Page will automatically refresh every two minutes.

Flight plan parsing failed; only flown route is shown


Map Options




Map Legend


Flown Route
Filed Route
Departure Airport
Arrival Airport
Navaid (VOR, NDB)
Fix

Horizontal Profiles

Position Reports

Time Latitude Longitude Heading Altitude Ground
Speed
01-Apr-20 07:19 37.618326 -122.391047 207 27ft 0kts
01-Apr-20 07:21 37.618326 -122.391047 207 27ft 0kts
01-Apr-20 07:22 37.618326 -122.391047 207 27ft 0kts
01-Apr-20 07:23 37.618326 -122.391047 207 27ft 0kts
01-Apr-20 07:24 37.618326 -122.391047 207 27ft 0kts
01-Apr-20 07:25 37.618326 -122.391047 207 27ft 0kts
01-Apr-20 07:26 37.618326 -122.391047 207 27ft 0kts
01-Apr-20 07:27 37.618326 -122.391047 207 27ft 0kts
01-Apr-20 07:28 37.618326 -122.391047 207 27ft 0kts
01-Apr-20 07:29 37.618326 -122.391047 207 27ft 0kts
01-Apr-20 07:30 37.618326 -122.391047 207 27ft 0kts
01-Apr-20 07:31 37.618326 -122.391047 207 27ft 0kts
01-Apr-20 07:32 37.618326 -122.391047 207 27ft 0kts
01-Apr-20 07:33 37.618326 -122.391047 207 27ft 0kts
01-Apr-20 07:34 37.618326 -122.391047 207 27ft 0kts
01-Apr-20 07:35 37.618326 -122.391047 207 27ft 0kts
01-Apr-20 07:36 37.618326 -122.391047 207 27ft 0kts
01-Apr-20 07:37 37.618326 -122.391047 207 27ft 0kts
01-Apr-20 07:37 37.618326 -122.391047 207 27ft 0kts
01-Apr-20 07:39 37.618326 -122.391047 207 27ft 0kts
01-Apr-20 07:40 37.618656 -122.390737 233 27ft 2kts
01-Apr-20 07:40 37.618762 -122.390046 297 27ft 1kts
01-Apr-20 07:42 37.618762 -122.390046 297 27ft 0kts
01-Apr-20 07:42 37.618802 -122.390144 297 27ft 2kts
01-Apr-20 07:43 37.619734 -122.392402 297 27ft 10kts
01-Apr-20 07:45 37.621934 -122.391316 30 27ft 13kts
01-Apr-20 07:45 37.622048 -122.387705 117 27ft 15kts
01-Apr-20 07:46 37.619603 -122.381864 117 27ft 20kts
01-Apr-20 07:47 37.615242 -122.380562 208 27ft 20kts
01-Apr-20 07:48 37.610326 -122.383794 207 27ft 12kts
01-Apr-20 07:49 37.609809 -122.381712 27 27ft 16kts
01-Apr-20 07:50 37.642409 -122.362532 0 1272ft 163kts
01-Apr-20 07:51 37.692555 -122.364621 353 3140ft 216kts
01-Apr-20 07:52 37.734207 -122.419402 265 5626ft 260kts
01-Apr-20 07:53 37.677163 -122.475504 208 8859ft 289kts
01-Apr-20 07:54 37.609362 -122.534687 223 11333ft 318kts
01-Apr-20 07:55 37.532994 -122.605575 221 13524ft 351kts
01-Apr-20 07:56 37.452321 -122.678238 215 16068ft 364kts
01-Apr-20 07:57 37.348843 -122.694670 172 18296ft 403kts
01-Apr-20 07:58 37.238460 -122.657296 171 20193ft 417kts
01-Apr-20 07:59 37.124235 -122.622498 170 21928ft 429kts
01-Apr-20 08:00 37.007271 -122.585846 170 23478ft 439kts
01-Apr-20 08:01 36.890399 -122.553050 173 25854ft 423kts
01-Apr-20 08:02 36.773831 -122.522972 173 27192ft 432kts
01-Apr-20 08:03 36.654978 -122.492199 173 28421ft 440kts
01-Apr-20 08:04 36.533606 -122.460858 173 29588ft 447kts
01-Apr-20 08:05 36.414439 -122.414770 148 30809ft 461kts
01-Apr-20 08:06 36.328914 -122.295485 130 32082ft 464kts
01-Apr-20 08:07 36.244993 -122.174331 133 33266ft 461kts
01-Apr-20 08:08 36.162190 -122.053434 132 34323ft 459kts
01-Apr-20 08:09 36.079556 -121.934188 133 35288ft 455kts
01-Apr-20 08:10 35.997272 -121.815529 133 36104ft 452kts
01-Apr-20 08:11 35.915665 -121.698270 133 36801ft 449kts
01-Apr-20 08:12 35.833690 -121.581023 133 37091ft 455kts
01-Apr-20 08:13 35.749993 -121.461647 133 37095ft 467kts
01-Apr-20 08:14 35.663719 -121.338948 133 37104ft 478kts
01-Apr-20 08:15 35.576292 -121.215164 133 37083ft 478kts
01-Apr-20 08:16 35.489901 -121.093110 132 37051ft 469kts
01-Apr-20 08:17 35.415009 -120.962899 126 36990ft 466kts
01-Apr-20 08:18 35.340698 -120.831791 126 36975ft 469kts
01-Apr-20 08:19 35.265913 -120.699995 126 36968ft 474kts
01-Apr-20 08:20 35.190260 -120.567314 126 37025ft 476kts
01-Apr-20 08:21 35.114289 -120.434492 126 37055ft 475kts
01-Apr-20 08:22 35.038706 -120.303030 126 37030ft 471kts
01-Apr-20 08:23 34.963508 -120.172631 126 36953ft 470kts
01-Apr-20 08:24 34.888116 -120.042418 126 36954ft 472kts
01-Apr-20 08:25 34.812156 -119.911704 127 37018ft 473kts
01-Apr-20 08:26 34.735928 -119.780931 127 37040ft 472kts
01-Apr-20 08:27 34.659904 -119.651067 127 37000ft 472kts
01-Apr-20 08:28 34.583706 -119.521319 127 36947ft 472kts
01-Apr-20 08:29 34.507451 -119.391979 127 36952ft 472kts
01-Apr-20 08:30 34.430973 -119.262732 127 36998ft 472kts
01-Apr-20 08:31 34.354249 -119.133477 127 37009ft 472kts
01-Apr-20 08:32 34.277400 -119.004552 127 37010ft 472kts
01-Apr-20 08:33 34.200542 -118.876050 128 36965ft 472kts
01-Apr-20 08:34 34.123610 -118.747725 128 36915ft 468kts
01-Apr-20 08:35 34.047632 -118.621737 128 36910ft 465kts
01-Apr-20 08:36 33.971364 -118.495513 128 35798ft 467kts
01-Apr-20 08:37 33.889569 -118.374998 135 33374ft 463kts
01-Apr-20 08:38 33.801566 -118.262375 134 30868ft 460kts
01-Apr-20 08:39 33.715815 -118.150038 134 28468ft 452kts
01-Apr-20 08:40 33.631813 -118.039825 134 26103ft 443kts
01-Apr-20 08:41 33.549462 -117.932604 136 23815ft 431kts
01-Apr-20 08:42 33.464309 -117.833720 137 21628ft 421kts
01-Apr-20 08:43 33.378911 -117.740032 139 19539ft 412kts
01-Apr-20 08:44 33.294395 -117.650104 139 17568ft 403kts
01-Apr-20 08:45 33.211392 -117.561890 139 15683ft 394kts
01-Apr-20 08:46 33.130066 -117.477944 144 13751ft 378kts
01-Apr-20 08:47 33.045580 -117.407812 146 11835ft 362kts
01-Apr-20 08:48 32.970254 -117.344316 146 10946ft 303kts
01-Apr-20 08:49 32.905012 -117.289697 146 9782ft 284kts
01-Apr-20 08:50 32.841268 -117.236678 146 8279ft 272kts
01-Apr-20 08:51 32.800608 -117.165645 100 6886ft 272kts
01-Apr-20 08:52 32.782628 -117.082707 105 5992ft 241kts
01-Apr-20 08:53 32.757054 -117.009296 115 5995ft 240kts
01-Apr-20 08:54 32.733288 -116.935450 94 5828ft 235kts
01-Apr-20 08:55 32.707651 -116.877459 177 4990ft 209kts
01-Apr-20 08:56 32.672502 -116.919370 255 4252ft 198kts
01-Apr-20 08:57 32.683421 -116.982745 285 3687ft 197kts
01-Apr-20 08:58 32.696876 -117.039094 285 2742ft 151kts
01-Apr-20 08:59 32.708021 -117.084953 284 1993ft 143kts
01-Apr-20 09:00 32.718936 -117.129852 284 1034ft 141kts
01-Apr-20 09:01 32.730113 -117.175664 284 155ft 142kts
01-Apr-20 09:02 32.736811 -117.202672 279 29ft 36kts
01-Apr-20 09:03 32.735569 -117.204474 219 29ft 18kts
01-Apr-20 09:04 32.734407 -117.205584 190 29ft 0kts
01-Apr-20 09:05 32.734400 -117.205586 190 29ft 0kts
01-Apr-20 09:06 32.733159 -117.207381 306 29ft 8kts
01-Apr-20 09:07 32.733389 -117.207415 12 29ft 0kts
01-Apr-20 09:08 32.733389 -117.207415 12 29ft 0kts
01-Apr-20 09:09 32.733389 -117.207415 12 29ft 0kts
01-Apr-20 09:10 32.733389 -117.207415 12 29ft 0kts
01-Apr-20 09:11 32.733389 -117.207415 12 29ft 0kts
01-Apr-20 09:12 32.733389 -117.207415 12 29ft 0kts
01-Apr-20 09:13 32.733389 -117.207415 12 29ft 0kts
01-Apr-20 09:14 32.733389 -117.207415 12 29ft 0kts
01-Apr-20 09:15 32.733389 -117.207415 12 29ft 0kts
01-Apr-20 09:16 32.733389 -117.207415 12 29ft 0kts
01-Apr-20 09:17 32.733389 -117.207415 12 29ft 0kts

Navigation Log

Ident Type
Flight plan parsing failed, navigation log unavailable